Time;durP1;ratioP1;P1;durP2;ratioP2;P2;SDS_P1;SDS_P2;PMS_P1;PMS_P2;Temp;Humidity;BMP_temperature;BMP_pressure;BME280_temperature;BME280_humidity;BME280_pressure;Samples;Min_cycle;Max_cycle;Signal;HPM_P1;HPM_P2
2021/09/27 00:00:21;;;;;;;13.30;11.95;;;21.50;90.10;;;;;;4227868;27;20078;-58
2021/09/27 00:02:43;;;;;;;12.52;11.48;;;21.50;90.10;;;;;;4227928;28;20059;-59
2021/09/27 00:05:13;;;;;;;13.07;11.88;;;21.50;90.10;;;;;;4226235;27;20443;-58
2021/09/27 00:07:35;;;;;;;11.95;10.85;;;21.50;90.00;;;;;;4227146;27;20058;-59
2021/09/27 00:09:57;;;;;;;13.02;11.68;;;21.50;90.10;;;;;;4227441;27;20059;-59
2021/09/27 00:12:19;;;;;;;11.90;10.88;;;21.50;90.10;;;;;;4227836;27;20052;-59
2021/09/27 00:14:41;;;;;;;12.27;11.18;;;21.50;90.10;;;;;;4227539;27;20052;-59
2021/09/27 00:17:07;;;;;;;12.70;11.52;;;21.50;90.00;;;;;;4226117;27;20098;-59
2021/09/27 00:19:29;;;;;;;12.63;11.45;;;21.50;90.00;;;;;;4227492;27;20459;-58
2021/09/27 00:21:54;;;;;;;13.27;10.98;;;21.50;90.00;;;;;;4227405;27;20058;-59
2021/09/27 00:24:16;;;;;;;12.85;11.65;;;21.50;90.00;;;;;;4226902;27;20044;-59
2021/09/27 00:26:38;;;;;;;11.68;10.50;;;21.50;90.10;;;;;;4227276;27;20048;-59
2021/09/27 00:29:00;;;;;;;13.15;12.00;;;21.50;90.10;;;;;;4227191;27;20134;-58
2021/09/27 00:31:23;;;;;;;12.07;11.13;;;21.50;90.10;;;;;;4227296;27;20051;-59
2021/09/27 00:33:46;;;;;;;12.70;11.52;;;21.50;90.10;;;;;;4210316;28;20055;-59
2021/09/27 00:36:08;;;;;;;12.13;11.00;;;21.50;90.10;;;;;;4210116;28;20500;-59
2021/09/27 00:38:32;;;;;;;12.70;11.60;;;21.50;90.10;;;;;;4210305;28;20044;-59
2021/09/27 00:40:58;;;;;;;12.75;11.50;;;21.50;90.10;;;;;;4209894;28;20410;-57
2021/09/27 00:43:20;;;;;;;13.15;11.77;;;21.40;90.00;;;;;;4210072;28;20059;-59
2021/09/27 00:45:45;;;;;;;12.38;10.98;;;21.50;90.10;;;;;;4210305;28;20048;-59
2021/09/27 00:48:08;;;;;;;11.82;10.82;;;21.40;90.10;;;;;;4209573;28;20135;-59
2021/09/27 00:50:33;;;;;;;12.70;11.70;;;21.40;90.10;;;;;;4209861;28;20043;-59
2021/09/27 00:52:55;;;;;;;12.07;10.95;;;21.40;90.10;;;;;;4222618;27;20104;-58
2021/09/27 00:55:22;;;;;;;12.27;11.15;;;21.40;90.10;;;;;;4227048;27;20050;-58
2021/09/27 00:57:44;;;;;;;12.43;11.43;;;21.40;90.00;;;;;;4226486;27;20204;-59
2021/09/27 01:00:10;;;;;;;12.65;11.52;;;21.40;90.10;;;;;;4226556;27;20048;-58
2021/09/27 01:02:32;;;;;;;12.25;11.02;;;21.40;90.00;;;;;;4226544;27;20075;-58
2021/09/27 01:04:54;;;;;;;12.15;10.88;;;21.40;90.00;;;;;;4227025;27;20557;-58
2021/09/27 01:07:28;;;;;;;11.68;10.60;;;21.40;90.00;;;;;;4226357;27;20075;-58
2021/09/27 01:10:09;;;;;;;12.05;10.93;;;21.40;90.00;;;;;;4226263;27;20043;-59
2021/09/27 01:12:51;;;;;;;11.68;10.68;;;21.40;90.00;;;;;;4226399;27;20096;-59
2021/09/27 01:15:23;;;;;;;11.80;10.88;;;21.40;90.00;;;;;;4226583;28;20130;-59
2021/09/27 01:17:53;;;;;;;10.60;9.77;;;21.40;90.10;;;;;;4226128;28;20040;-59
2021/09/27 01:20:53;;;;;;;12.13;10.93;;;21.40;90.10;;;;;;4226077;27;20051;-59
2021/09/27 01:23:43;;;;;;;11.98;10.88;;;21.40;90.00;;;;;;4212357;28;20561;-58
2021/09/27 01:26:26;;;;;;;17.13;12.03;;;21.40;90.00;;;;;;4226519;27;20097;-59
2021/09/27 01:29:28;;;;;;;12.10;10.98;;;21.40;90.10;;;;;;4226143;27;20048;-59
2021/09/27 01:32:20;;;;;;;12.07;10.82;;;21.30;90.00;;;;;;4226517;27;20051;-58
2021/09/27 01:34:45;;;;;;;12.13;10.90;;;21.30;90.00;;;;;;4225053;27;20048;-59
2021/09/27 01:37:14;;;;;;;12.93;11.75;;;21.30;90.10;;;;;;4225504;27;20481;-59
2021/09/27 01:39:43;;;;;;;10.75;9.85;;;21.30;90.10;;;;;;4225174;27;20171;-59
2021/09/27 01:42:10;;;;;;;11.15;10.07;;;21.30;90.00;;;;;;4225493;27;20139;-58
2021/09/27 01:44:40;;;;;;;15.00;10.27;;;21.30;90.00;;;;;;4225117;28;20046;-58
2021/09/27 01:47:12;;;;;;;13.15;10.40;;;21.30;90.00;;;;;;4224462;27;20044;-59
2021/09/27 01:49:40;;;;;;;11.77;10.57;;;21.30;90.00;;;;;;4225056;27;20124;-59
2021/09/27 01:52:08;;;;;;;11.20;10.02;;;21.30;90.00;;;;;;4209107;28;20081;-59
2021/09/27 01:54:36;;;;;;;12.13;10.30;;;21.30;90.00;;;;;;4208728;28;20097;-59
2021/09/27 01:57:08;;;;;;;11.13;10.13;;;21.30;90.00;;;;;;4209040;28;20051;-58
2021/09/27 01:59:37;;;;;;;11.77;10.75;;;21.30;90.00;;;;;;4208460;28;20253;-58
2021/09/27 02:02:05;;;;;;;11.10;10.02;;;21.30;90.00;;;;;;4209181;28;20051;-59
2021/09/27 02:04:34;;;;;;;11.40;10.40;;;21.30;90.00;;;;;;4209034;28;20043;-58
2021/09/27 02:06:58;;;;;;;11.13;10.25;;;21.30;89.90;;;;;;4223179;28;20067;-59
2021/09/27 02:09:25;;;;;;;12.00;10.88;;;21.30;90.40;;;;;;4225794;28;20134;-59
2021/09/27 02:11:53;;;;;;;12.07;10.93;;;21.20;90.00;;;;;;4225783;27;20401;-59
2021/09/27 02:14:22;;;;;;;12.07;10.88;;;21.20;90.00;;;;;;4224897;27;20784;-59
2021/09/27 02:16:52;;;;;;;12.82;11.73;;;21.20;90.00;;;;;;4225296;27;20504;-59
2021/09/27 02:19:22;;;;;;;12.27;11.10;;;21.20;90.00;;;;;;4225583;27;20055;-59
2021/09/27 02:21:50;;;;;;;11.68;10.57;;;21.30;90.00;;;;;;4225477;27;20052;-59
2021/09/27 02:24:17;;;;;;;11.75;10.65;;;21.20;90.00;;;;;;4225061;27;20075;-59
2021/09/27 02:26:40;;;;;;;11.77;10.57;;;21.20;90.00;;;;;;4224993;28;20577;-59
2021/09/27 02:29:02;;;;;;;12.05;10.75;;;21.20;90.00;;;;;;4225329;27;20051;-59
2021/09/27 02:31:32;;;;;;;12.93;11.63;;;21.20;90.00;;;;;;4225400;28;20437;-58
2021/09/27 02:34:11;;;;;;;12.00;10.90;;;21.20;89.80;;;;;;4225002;27;20521;-59
2021/09/27 02:36:40;;;;;;;11.70;10.70;;;21.20;89.70;;;;;;4224688;27;20048;-58
2021/09/27 02:39:07;;;;;;;12.48;11.38;;;21.20;89.90;;;;;;4224676;27;20109;-59
2021/09/27 02:41:36;;;;;;;11.82;10.85;;;21.20;89.90;;;;;;4225250;27;20043;-59
2021/09/27 02:43:59;;;;;;;12.32;10.40;;;21.20;89.80;;;;;;4224633;27;20054;-59
2021/09/27 02:46:22;;;;;;;11.07;10.13;;;21.20;90.00;;;;;;4224956;27;20067;-59
2021/09/27 02:48:54;;;;;;;11.27;10.30;;;21.20;90.00;;;;;;4224956;27;20040;-58
2021/09/27 02:51:16;;;;;;;11.80;10.65;;;21.20;90.00;;;;;;4224478;28;20044;-59
2021/09/27 02:53:41;;;;;;;11.73;10.55;;;21.20;90.00;;;;;;4224634;27;20040;-60
2021/09/27 02:56:33;;;;;;;12.30;10.43;;;21.20;89.90;;;;;;4224849;27;20075;-60
2021/09/27 02:59:10;;;;;;;11.55;10.52;;;21.20;89.60;;;;;;4224921;27;20126;-59
2021/09/27 03:01:39;;;;;;;11.20;10.02;;;21.20;89.80;;;;;;4208161;28;20486;-60
2021/09/27 03:04:08;;;;;;;11.13;10.02;;;21.10;89.90;;;;;;4208398;28;20056;-59
2021/09/27 03:06:44;;;;;;;10.32;9.43;;;21.20;89.90;;;;;;4207750;28;20043;-59
2021/09/27 03:09:15;;;;;;;10.73;9.73;;;21.10;89.70;;;;;;4207504;28;20075;-59
2021/09/27 03:12:05;;;;;;;12.55;10.93;;;21.10;89.70;;;;;;4212280;28;20051;-59
2021/09/27 03:14:51;;;;;;;13.25;10.75;;;21.10;89.60;;;;;;4224447;28;20501;-59
2021/09/27 03:17:18;;;;;;;10.75;9.85;;;21.10;89.70;;;;;;4224553;28;20054;-59
2021/09/27 03:19:56;;;;;;;10.80;9.65;;;21.10;90.00;;;;;;4224819;28;20195;-60
2021/09/27 03:22:28;;;;;;;10.38;9.57;;;21.10;89.80;;;;;;4222768;28;20124;-59
2021/09/27 03:25:03;;;;;;;11.23;10.13;;;21.10;89.90;;;;;;4224355;27;20417;-60
2021/09/27 03:27:34;;;;;;;11.35;10.07;;;21.10;89.90;;;;;;4224177;27;20492;-59
2021/09/27 03:30:06;;;;;;;10.65;9.75;;;21.10;89.90;;;;;;4224938;27;20131;-59
2021/09/27 03:32:40;;;;;;;10.57;9.52;;;21.10;89.80;;;;;;4224390;27;20050;-59
2021/09/27 03:35:13;;;;;;;11.20;9.80;;;21.10;90.00;;;;;;4224513;27;20039;-60
2021/09/27 03:37:43;;;;;;;12.73;10.18;;;21.10;89.70;;;;;;4235008;27;20043;-60
2021/09/27 03:40:24;;;;;;;10.40;9.50;;;21.00;89.80;;;;;;4207599;28;20089;-59
2021/09/27 03:42:54;;;;;;;10.65;9.63;;;21.10;89.60;;;;;;4207138;28;20055;-59
2021/09/27 03:45:21;;;;;;;11.02;9.85;;;21.10;90.00;;;;;;4207421;28;20068;-60
2021/09/27 03:47:55;;;;;;;11.25;10.15;;;21.00;89.90;;;;;;4207456;28;20052;-59
2021/09/27 03:50:22;;;;;;;12.38;10.35;;;21.00;89.60;;;;;;4207196;28;20052;-59
2021/09/27 03:52:49;;;;;;;12.88;9.90;;;21.00;89.80;;;;;;4207542;28;20147;-60
2021/09/27 03:55:17;;;;;;;10.60;9.60;;;21.00;89.80;;;;;;4223589;27;20051;-59
2021/09/27 03:57:45;;;;;;;10.52;9.52;;;21.00;89.70;;;;;;4224240;28;20516;-59
2021/09/27 04:00:10;;;;;;;9.63;8.75;;;21.00;89.70;;;;;;4224583;28;20134;-59
2021/09/27 04:02:40;;;;;;;10.38;9.45;;;21.00;89.90;;;;;;4223886;28;20167;-59
2021/09/27 04:05:07;;;;;;;10.77;9.88;;;21.00;89.80;;;;;;4224409;28;20047;-59
2021/09/27 04:07:44;;;;;;;10.25;9.45;;;21.00;90.10;;;;;;4207234;28;20056;-60
2021/09/27 04:10:19;;;;;;;11.35;10.25;;;21.00;90.40;;;;;;4207045;28;20490;-60
2021/09/27 04:12:55;;;;;;;10.48;9.57;;;21.00;90.10;;;;;;4207160;28;20048;-59
2021/09/27 04:15:40;;;;;;;11.45;9.68;;;21.00;90.10;;;;;;4207294;28;20052;-59
2021/09/27 04:18:12;;;;;;;10.63;9.65;;;21.00;90.10;;;;;;4216124;28;20070;-59
2021/09/27 04:20:48;;;;;;;10.77;9.73;;;21.00;90.20;;;;;;4224208;28;20044;-59
2021/09/27 04:23:16;;;;;;;13.25;10.13;;;21.00;90.20;;;;;;4224128;28;20502;-59
2021/09/27 04:25:48;;;;;;;10.10;9.20;;;21.00;90.20;;;;;;4224396;28;20059;-59
2021/09/27 04:28:32;;;;;;;10.20;9.13;;;21.00;90.10;;;;;;4225364;27;20052;-59
2021/09/27 04:31:16;;;;;;;11.25;9.63;;;21.00;90.00;;;;;;4226601;27;20082;-59
2021/09/27 04:33:59;;;;;;;11.20;10.02;;;21.00;90.00;;;;;;4227304;27;20092;-60
2021/09/27 04:36:23;;;;;;;10.30;9.30;;;21.00;90.10;;;;;;4227088;27;20130;-60
2021/09/27 04:38:47;;;;;;;10.85;9.95;;;21.00;90.30;;;;;;4227092;27;20436;-59
2021/09/27 04:41:31;;;;;;;10.18;9.30;;;21.00;90.20;;;;;;4226977;27;20062;-59
2021/09/27 04:44:02;;;;;;;9.95;8.88;;;21.00;90.40;;;;;;4226806;27;20051;-59
2021/09/27 04:46:36;;;;;;;11.00;9.57;;;21.00;90.10;;;;;;4226845;27;20079;-59
2021/09/27 04:49:06;;;;;;;11.15;10.02;;;21.00;90.10;;;;;;4226590;27;20051;-59
2021/09/27 04:51:40;;;;;;;10.73;9.63;;;21.00;90.10;;;;;;4226923;27;20043;-59
2021/09/27 04:54:25;;;;;;;10.10;9.30;;;21.00;90.10;;;;;;4226469;27;20046;-59
2021/09/27 04:56:58;;;;;;;10.63;9.63;;;20.90;90.00;;;;;;4226515;27;20051;-59
2021/09/27 04:59:30;;;;;;;10.75;9.75;;;20.90;90.00;;;;;;4226156;27;20047;-59
2021/09/27 05:02:06;;;;;;;10.02;9.13;;;20.90;90.00;;;;;;4226531;27;20109;-59
2021/09/27 05:04:36;;;;;;;10.50;9.40;;;20.90;90.00;;;;;;4226670;27;20059;-60
2021/09/27 05:07:23;;;;;;;10.23;9.07;;;20.90;90.00;;;;;;4226973;27;20429;-59
2021/09/27 05:09:58;;;;;;;10.15;9.30;;;20.90;89.90;;;;;;4226750;27;20613;-59
2021/09/27 05:12:57;;;;;;;10.07;9.18;;;20.90;90.50;;;;;;4226117;27;20493;-59
2021/09/27 05:15:33;;;;;;;10.73;9.65;;;20.90;90.00;;;;;;4226685;27;20126;-59
2021/09/27 05:18:17;;;;;;;10.02;9.13;;;20.90;90.00;;;;;;4226644;27;20047;-59
2021/09/27 05:21:04;;;;;;;10.55;9.27;;;20.90;90.00;;;;;;4226614;27;20524;-59
2021/09/27 05:23:32;;;;;;;11.20;10.10;;;20.90;89.70;;;;;;4226036;27;20058;-59
2021/09/27 05:26:30;;;;;;;10.95;9.75;;;20.90;90.10;;;;;;4226189;27;20039;-60
2021/09/27 05:29:04;;;;;;;9.90;8.98;;;20.80;89.60;;;;;;4226440;28;21026;-59
2021/09/27 05:31:58;;;;;;;10.15;9.15;;;20.90;90.00;;;;;;4226083;27;20047;-60
2021/09/27 05:34:33;;;;;;;10.10;9.10;;;20.90;89.90;;;;;;4222619;27;20120;-60
2021/09/27 05:37:13;;;;;;;9.95;8.95;;;20.90;90.10;;;;;;4210416;28;20078;-60
2021/09/27 05:40:03;;;;;;;11.17;10.10;;;20.90;90.00;;;;;;4208912;28;20070;-60
2021/09/27 05:42:36;;;;;;;10.23;9.32;;;20.80;90.00;;;;;;4208956;28;20051;-60
2021/09/27 05:45:16;;;;;;;10.60;9.52;;;20.80;90.20;;;;;;4225559;27;20498;-60
2021/09/27 05:47:48;;;;;;;10.05;9.10;;;20.90;90.00;;;;;;4225415;27;20451;-60
2021/09/27 05:50:17;;;;;;;12.38;10.40;;;20.80;90.10;;;;;;4216986;27;20044;-64
2021/09/27 05:52:46;;;;;;;11.10;10.02;;;20.90;90.30;;;;;;4226255;27;20051;-59
2021/09/27 05:55:16;;;;;;;10.10;9.07;;;20.90;90.40;;;;;;4225788;27;20046;-59
2021/09/27 05:57:50;;;;;;;13.63;9.25;;;20.90;90.30;;;;;;4225398;27;20063;-58
2021/09/27 06:00:22;;;;;;;9.70;8.80;;;20.90;90.20;;;;;;4225247;27;20108;-58
2021/09/27 06:02:56;;;;;;;10.63;9.52;;;20.90;90.20;;;;;;4224065;27;20563;-59
2021/09/27 06:05:25;;;;;;;10.25;9.25;;;20.90;90.20;;;;;;4199344;28;20093;-59
2021/09/27 06:07:56;;;;;;;9.75;8.95;;;20.90;90.10;;;;;;4207367;28;20040;-59
2021/09/27 06:10:24;;;;;;;14.13;9.82;;;20.90;90.00;;;;;;4208698;28;20055;-59
2021/09/27 06:12:56;;;;;;;9.05;8.25;;;20.90;90.00;;;;;;4208788;28;20502;-59
2021/09/27 06:15:26;;;;;;;9.80;8.95;;;20.90;89.90;;;;;;4208651;28;20091;-59
2021/09/27 06:18:07;;;;;;;10.57;9.57;;;20.90;89.90;;;;;;4207899;28;20039;-59
2021/09/27 06:20:40;;;;;;;10.48;9.38;;;20.80;89.40;;;;;;4206493;28;20135;-59
2021/09/27 06:23:27;;;;;;;10.30;9.27;;;20.90;89.70;;;;;;4207892;28;20130;-59
2021/09/27 06:25:57;;;;;;;9.40;8.57;;;20.80;89.60;;;;;;4208458;28;20075;-59
2021/09/27 06:28:28;;;;;;;10.48;9.48;;;20.80;90.00;;;;;;4208090;28;20048;-59
2021/09/27 06:30:56;;;;;;;10.57;9.65;;;20.80;90.00;;;;;;4208133;28;20055;-58
2021/09/27 06:33:26;;;;;;;10.75;8.68;;;20.80;90.40;;;;;;4207885;28;20071;-61
2021/09/27 06:35:52;;;;;;;10.23;9.23;;;20.80;90.20;;;;;;4208443;28;20050;-60
2021/09/27 06:38:15;;;;;;;10.38;9.38;;;20.80;90.30;;;;;;4208606;28;20135;-60
2021/09/27 06:40:41;;;;;;;10.68;9.55;;;20.80;90.30;;;;;;4208351;28;20126;-59
2021/09/27 06:43:02;;;;;;;10.35;9.35;;;20.80;90.20;;;;;;4207774;28;20109;-59
2021/09/27 06:45:25;;;;;;;11.45;10.23;;;20.80;90.30;;;;;;4206575;28;20140;-59
2021/09/27 06:47:49;;;;;;;9.60;8.57;;;20.80;90.40;;;;;;4207312;28;20047;-58
2021/09/27 06:50:12;;;;;;;10.50;9.48;;;20.80;90.40;;;;;;4207027;28;20055;-59
2021/09/27 06:52:34;;;;;;;11.13;10.10;;;20.70;90.40;;;;;;4224765;27;20481;-60
2021/09/27 06:54:57;;;;;;;13.05;10.20;;;20.70;90.20;;;;;;4223598;27;20039;-59
2021/09/27 06:57:19;;;;;;;12.20;10.82;;;20.70;90.00;;;;;;4224510;27;20055;-59
2021/09/27 06:59:42;;;;;;;11.48;10.40;;;20.70;90.10;;;;;;4224401;27;20054;-59
2021/09/27 07:02:12;;;;;;;11.75;10.75;;;20.70;90.20;;;;;;4220251;27;20059;-60
2021/09/27 07:04:36;;;;;;;12.63;10.85;;;20.70;90.20;;;;;;4222658;27;20472;-60
2021/09/27 07:06:58;;;;;;;12.40;11.20;;;20.70;90.20;;;;;;4224419;27;20044;-59
2021/09/27 07:09:20;;;;;;;12.60;11.40;;;20.70;90.20;;;;;;4225058;27;20040;-59
2021/09/27 07:11:43;;;;;;;14.05;12.48;;;20.70;90.30;;;;;;4224552;27;20051;-59
2021/09/27 07:14:05;;;;;;;11.77;10.77;;;20.70;90.20;;;;;;4225145;27;20079;-60
2021/09/27 07:16:27;;;;;;;12.63;11.30;;;20.70;90.20;;;;;;4225041;27;20051;-59
2021/09/27 07:18:57;;;;;;;11.88;10.77;;;20.70;90.20;;;;;;4224374;27;20086;-60
2021/09/27 07:21:21;;;;;;;12.98;11.77;;;20.70;90.20;;;;;;4224251;27;20060;-60
2021/09/27 07:23:43;;;;;;;12.30;11.18;;;20.70;90.20;;;;;;4224835;27;20052;-59
2021/09/27 07:26:05;;;;;;;13.38;12.05;;;20.70;90.30;;;;;;4224524;27;20408;-60
2021/09/27 07:28:27;;;;;;;12.82;11.52;;;20.70;90.50;;;;;;4224834;27;20110;-59
2021/09/27 07:30:50;;;;;;;12.43;11.18;;;20.70;90.40;;;;;;4224202;27;20051;-60
2021/09/27 07:33:13;;;;;;;13.38;12.07;;;20.70;90.50;;;;;;4224494;27;20044;-59
2021/09/27 07:35:36;;;;;;;12.23;11.05;;;20.70;90.30;;;;;;4221839;27;20060;-60
2021/09/27 07:38:00;;;;;;;13.68;12.25;;;20.70;90.90;;;;;;4224582;28;20075;-60
2021/09/27 07:40:25;;;;;;;13.65;12.32;;;20.70;90.50;;;;;;4224923;28;20048;-59
2021/09/27 07:42:47;;;;;;;12.48;11.02;;;20.70;90.40;;;;;;4220585;27;20071;-59
2021/09/27 07:45:12;;;;;;;13.27;11.82;;;20.70;90.40;;;;;;4222166;27;20051;-60
2021/09/27 07:47:34;;;;;;;13.70;11.52;;;20.70;90.40;;;;;;4224346;27;20074;-60
2021/09/27 07:49:56;;;;;;;17.38;11.90;;;20.70;90.40;;;;;;4224365;27;20501;-60
2021/09/27 07:52:18;;;;;;;14.07;12.68;;;20.70;90.50;;;;;;4223838;27;20051;-59
2021/09/27 07:54:42;;;;;;;13.40;11.95;;;20.70;90.50;;;;;;4224360;27;20059;-59
2021/09/27 07:57:04;;;;;;;13.88;12.57;;;20.70;90.50;;;;;;4224324;27;20050;-60
2021/09/27 07:59:26;;;;;;;13.60;12.20;;;20.70;90.50;;;;;;4224072;27;20052;-59
2021/09/27 08:01:49;;;;;;;14.10;11.90;;;20.70;90.60;;;;;;4224626;27;20055;-59
2021/09/27 08:04:13;;;;;;;14.30;12.93;;;20.70;90.60;;;;;;4226647;27;20039;-59
2021/09/27 08:06:35;;;;;;;12.93;11.73;;;20.70;90.60;;;;;;4227758;27;20078;-60
2021/09/27 08:08:57;;;;;;;15.88;14.15;;;20.70;90.60;;;;;;4226962;27;20054;-60
2021/09/27 08:11:21;;;;;;;16.40;13.32;;;20.60;90.60;;;;;;4227608;27;20054;-57
2021/09/27 08:13:43;;;;;;;15.77;12.88;;;20.70;90.60;;;;;;4227709;27;20130;-60
2021/09/27 08:16:06;;;;;;;13.07;11.32;;;20.70;90.60;;;;;;4221523;27;20069;-59
2021/09/27 08:18:29;;;;;;;13.88;12.40;;;20.70;90.60;;;;;;4227248;27;20509;-59
2021/09/27 08:20:55;;;;;;;14.02;12.65;;;20.70;90.50;;;;;;4227529;27;20126;-59
2021/09/27 08:23:18;;;;;;;15.18;13.73;;;20.70;90.60;;;;;;4227254;27;20047;-60
2021/09/27 08:25:41;;;;;;;15.43;13.90;;;20.70;90.50;;;;;;4211766;28;20063;-59
2021/09/27 08:28:06;;;;;;;15.00;13.50;;;20.70;90.50;;;;;;4210272;28;20425;-59
2021/09/27 08:30:32;;;;;;;15.00;13.10;;;20.70;90.50;;;;;;4210568;28;20128;-59
2021/09/27 08:32:55;;;;;;;15.00;13.40;;;20.70;90.50;;;;;;4209646;28;20561;-60
2021/09/27 08:35:18;;;;;;;15.85;14.15;;;20.70;90.50;;;;;;4200134;28;20075;-60
2021/09/27 08:37:40;;;;;;;17.35;14.30;;;20.70;90.50;;;;;;4210423;28;20127;-59
2021/09/27 08:40:04;;;;;;;16.90;13.77;;;20.70;90.50;;;;;;4209905;28;20051;-60
2021/09/27 08:42:29;;;;;;;13.57;12.02;;;20.70;90.60;;;;;;4210456;28;20048;-59
2021/09/27 08:44:56;;;;;;;15.98;13.52;;;20.70;90.60;;;;;;4210448;28;20051;-60
2021/09/27 08:47:26;;;;;;;15.63;13.60;;;20.70;90.70;;;;;;4206995;28;20047;-60
2021/09/27 08:49:53;;;;;;;12.90;11.57;;;20.70;90.70;;;;;;4209658;27;20666;-60
2021/09/27 08:52:18;;;;;;;14.35;12.80;;;20.70;90.70;;;;;;4209880;28;20555;-58
2021/09/27 08:54:41;;;;;;;13.73;12.32;;;20.70;90.70;;;;;;4209901;28;20048;-60
2021/09/27 08:57:09;;;;;;;14.35;12.57;;;20.70;90.70;;;;;;4209504;28;20055;-60
2021/09/27 08:59:46;;;;;;;13.27;12.02;;;20.70;90.80;;;;;;4226980;27;20057;-60
2021/09/27 09:02:23;;;;;;;14.32;12.57;;;20.70;90.90;;;;;;4226384;27;20497;-59
2021/09/27 09:04:53;;;;;;;14.63;13.25;;;20.70;90.90;;;;;;4226670;27;20131;-59
2021/09/27 09:07:18;;;;;;;14.15;12.65;;;20.70;90.90;;;;;;4226376;27;20036;-59
2021/09/27 09:09:45;;;;;;;13.77;12.45;;;20.80;90.90;;;;;;4224231;27;20555;-59
2021/09/27 09:12:17;;;;;;;13.38;12.07;;;20.70;91.00;;;;;;4225985;27;20053;-59
2021/09/27 09:14:44;;;;;;;13.40;11.73;;;20.80;91.00;;;;;;4225045;27;20055;-59
2021/09/27 09:17:20;;;;;;;13.52;11.90;;;20.80;90.90;;;;;;4226282;27;20055;-59
2021/09/27 09:19:43;;;;;;;13.50;12.20;;;20.70;91.00;;;;;;4226204;27;20054;-59
2021/09/27 09:22:12;;;;;;;13.40;11.73;;;20.80;90.90;;;;;;4226400;27;20043;-59
2021/09/27 09:24:38;;;;;;;12.63;11.43;;;20.80;91.00;;;;;;4225645;28;20104;-59
2021/09/27 09:27:04;;;;;;;12.60;11.43;;;20.80;91.10;;;;;;4225736;27;20044;-59
2021/09/27 09:29:28;;;;;;;14.35;11.10;;;20.80;91.10;;;;;;4225991;27;20054;-59
2021/09/27 09:31:53;;;;;;;12.75;10.55;;;20.80;91.20;;;;;;4226262;27;20051;-59
2021/09/27 09:34:35;;;;;;;12.80;11.43;;;20.90;91.60;;;;;;4208988;28;20446;-59
2021/09/27 09:37:00;;;;;;;11.43;10.38;;;20.90;91.70;;;;;;4210828;28;20044;-59
2021/09/27 09:39:26;;;;;;;12.00;10.90;;;20.90;91.40;;;;;;4225211;27;20055;-60
2021/09/27 09:41:51;;;;;;;12.20;11.00;;;20.90;91.40;;;;;;4226113;27;20079;-60
2021/09/27 09:44:25;;;;;;;11.60;10.38;;;20.90;91.30;;;;;;4225986;27;20097;-60
2021/09/27 09:46:59;;;;;;;11.20;10.18;;;20.90;91.40;;;;;;4226230;27;20474;-59
2021/09/27 09:49:21;;;;;;;12.57;11.30;;;20.90;91.40;;;;;;4225458;27;20043;-59
2021/09/27 09:51:47;;;;;;;13.23;11.43;;;20.90;91.30;;;;;;4225846;27;20056;-59
2021/09/27 09:54:18;;;;;;;13.20;11.98;;;20.90;91.30;;;;;;4208976;28;20064;-59
2021/09/27 09:56:43;;;;;;;12.30;11.23;;;21.00;91.70;;;;;;4208750;28;20117;-58
2021/09/27 09:59:25;;;;;;;12.95;10.90;;;21.00;91.50;;;;;;4213561;27;20056;-59
2021/09/27 10:01:51;;;;;;;11.05;10.05;;;21.00;91.50;;;;;;4225643;27;20043;-60
2021/09/27 10:04:22;;;;;;;11.40;9.48;;;21.00;91.30;;;;;;4224837;27;20048;-60
2021/09/27 10:06:47;;;;;;;10.40;9.37;;;21.10;91.30;;;;;;4225496;27;20055;-59
2021/09/27 10:09:17;;;;;;;10.70;9.48;;;21.10;91.20;;;;;;4224976;27;20055;-60
2021/09/27 10:11:43;;;;;;;10.68;9.68;;;21.10;91.20;;;;;;4225650;27;20055;-61
2021/09/27 10:14:23;;;;;;;11.20;10.20;;;21.10;91.10;;;;;;4225683;27;20074;-59
2021/09/27 10:16:49;;;;;;;12.05;9.55;;;21.20;91.10;;;;;;4225263;27;20066;-59
2021/09/27 10:19:18;;;;;;;10.73;9.55;;;21.20;91.00;;;;;;4224871;27;20128;-59
2021/09/27 10:21:41;;;;;;;9.95;9.10;;;21.20;90.90;;;;;;4224695;27;20503;-59
2021/09/27 10:24:18;;;;;;;9.90;9.00;;;21.20;90.90;;;;;;4225025;27;20055;-59
2021/09/27 10:26:46;;;;;;;10.07;9.13;;;21.30;90.90;;;;;;4224921;27;20043;-59
2021/09/27 10:29:13;;;;;;;9.65;8.88;;;21.30;90.90;;;;;;4224422;27;20055;-59
2021/09/27 10:31:37;;;;;;;10.73;9.82;;;21.30;90.80;;;;;;4225606;28;20048;-59
2021/09/27 10:34:02;;;;;;;10.63;9.63;;;21.30;90.70;;;;;;4218456;27;20078;-59
2021/09/27 10:36:33;;;;;;;9.73;8.82;;;21.30;90.70;;;;;;4225665;27;20066;-59
2021/09/27 10:38:59;;;;;;;9.27;8.43;;;21.40;90.60;;;;;;4225005;27;20048;-59
2021/09/27 10:41:27;;;;;;;10.52;9.43;;;21.40;90.60;;;;;;4225179;27;20052;-59
2021/09/27 10:43:52;;;;;;;8.57;7.68;;;21.40;90.50;;;;;;4208228;28;20048;-60
2021/09/27 10:46:17;;;;;;;9.82;8.85;;;21.40;90.50;;;;;;4218280;27;20514;-60
2021/09/27 10:48:50;;;;;;;9.70;8.77;;;21.40;90.50;;;;;;4212636;27;20506;-60
2021/09/27 10:51:12;;;;;;;9.07;8.05;;;21.40;90.50;;;;;;4252670;27;20046;-59
2021/09/27 10:53:38;;;;;;;8.35;7.65;;;21.40;90.40;;;;;;4224787;27;20043;-59
2021/09/27 10:56:12;;;;;;;8.65;7.30;;;21.40;90.30;;;;;;4224642;28;20047;-60
2021/09/27 10:58:42;;;;;;;8.60;7.80;;;21.40;90.30;;;;;;4224907;27;20039;-59
2021/09/27 11:01:07;;;;;;;7.72;7.00;;;21.40;90.30;;;;;;4224286;27;20047;-60
2021/09/27 11:03:32;;;;;;;8.75;8.02;;;21.50;90.30;;;;;;4225073;28;20047;-59
2021/09/27 11:06:00;;;;;;;9.07;8.27;;;21.50;90.30;;;;;;4224532;28;20488;-58
2021/09/27 11:08:41;;;;;;;8.90;7.55;;;21.50;90.20;;;;;;4224833;28;20079;-59
2021/09/27 11:11:17;;;;;;;8.98;8.18;;;21.50;90.20;;;;;;4224648;28;20051;-62
2021/09/27 11:13:44;;;;;;;9.43;8.55;;;21.50;90.20;;;;;;4224287;27;20052;-60
2021/09/27 11:16:15;;;;;;;7.97;7.28;;;21.50;90.20;;;;;;4224524;28;20060;-61
2021/09/27 11:18:39;;;;;;;7.20;6.60;;;21.60;90.20;;;;;;4224860;28;20039;-60
2021/09/27 11:21:17;;;;;;;8.23;7.43;;;21.60;90.10;;;;;;4224856;28;20134;-59
2021/09/27 11:23:40;;;;;;;8.07;7.28;;;21.60;90.10;;;;;;4224611;28;20043;-60
2021/09/27 11:26:35;;;;;;;8.20;7.35;;;21.60;90.00;;;;;;4207531;28;20506;-60
2021/09/27 11:29:22;;;;;;;8.57;7.72;;;21.60;90.00;;;;;;4190832;28;20479;-60
2021/09/27 11:31:45;;;;;;;7.95;7.30;;;21.60;89.90;;;;;;4207775;28;20587;-60
2021/09/27 11:34:41;;;;;;;8.98;7.38;;;21.60;89.80;;;;;;4208159;28;20048;-60
2021/09/27 11:37:18;;;;;;;7.75;6.95;;;21.60;89.60;;;;;;4215284;27;20493;-60
2021/09/27 11:39:45;;;;;;;6.90;6.40;;;21.60;90.20;;;;;;4227834;27;20456;-60
2021/09/27 11:42:36;;;;;;;7.88;7.22;;;21.60;89.60;;;;;;4227712;27;20134;-60
2021/09/27 11:45:12;;;;;;;;;;;21.70;89.70;;;;;;4228201;27;20051;-58
2021/09/27 11:47:56;;;;;;;7.30;6.60;;;21.70;89.50;;;;;;4227709;27;20019;-60
2021/09/27 11:50:53;;;;;;;6.88;6.28;;;21.70;89.60;;;;;;4214797;28;20135;-59
2021/09/27 11:53:28;;;;;;;7.20;6.60;;;21.70;89.60;;;;;;4226788;28;20493;-60
2021/09/27 11:56:00;;;;;;;7.13;6.40;;;21.70;89.60;;;;;;4227793;27;20040;-60
2021/09/27 11:58:25;;;;;;;6.97;6.28;;;21.70;89.60;;;;;;4227732;27;20463;-60
2021/09/27 12:00:55;;;;;;;6.78;6.13;;;21.70;89.50;;;;;;4226843;27;20126;-60
2021/09/27 12:03:24;;;;;;;6.88;6.25;;;21.80;89.70;;;;;;4227419;27;20059;-61
2021/09/27 12:05:53;;;;;;;6.70;6.10;;;21.70;89.30;;;;;;4226769;27;20500;-60
2021/09/27 12:08:20;;;;;;;6.10;5.65;;;21.70;89.20;;;;;;4226108;27;20108;-60
2021/09/27 12:10:45;;;;;;;7.07;6.47;;;21.70;89.10;;;;;;4227603;27;20051;-60
2021/09/27 12:13:11;;;;;;;6.90;6.15;;;21.70;89.10;;;;;;4227565;27;20473;-60
2021/09/27 12:15:39;;;;;;;8.38;6.40;;;21.70;89.30;;;;;;4227245;27;20046;-60
2021/09/27 12:18:03;;;;;;;7.20;6.70;;;21.80;89.30;;;;;;4227431;27;20485;-60
2021/09/27 12:20:32;;;;;;;6.60;6.00;;;21.80;89.20;;;;;;4227460;27;20059;-61
2021/09/27 12:22:57;;;;;;;7.47;6.22;;;21.80;89.10;;;;;;4227169;28;20047;-61
2021/09/27 12:25:22;;;;;;;6.55;6.05;;;21.80;89.00;;;;;;4227341;27;20059;-60
2021/09/27 12:27:52;;;;;;;6.72;6.22;;;21.80;88.90;;;;;;4227806;27;20047;-60
2021/09/27 12:30:15;;;;;;;7.45;6.75;;;21.90;88.90;;;;;;4226973;27;20062;-60
2021/09/27 12:32:41;;;;;;;6.88;6.03;;;21.80;88.80;;;;;;4227187;27;20130;-60
2021/09/27 12:35:11;;;;;;;6.82;6.32;;;21.90;88.80;;;;;;4227336;27;20051;-58
2021/09/27 12:37:36;;;;;;;8.85;5.80;;;21.90;88.80;;;;;;4226875;27;20469;-61
2021/09/27 12:39:58;;;;;;;6.03;5.28;;;21.90;88.80;;;;;;4225815;27;20116;-60
2021/09/27 12:42:27;;;;;;;6.15;5.55;;;21.90;88.80;;;;;;4227253;27;20051;-60
2021/09/27 12:44:55;;;;;;;6.35;5.85;;;21.90;88.90;;;;;;4227439;27;20131;-59